Time;durP1;ratioP1;P1;durP2;ratioP2;P2;SDS_P1;SDS_P2;PMS_P1;PMS_P2;Temp;Humidity;BMP_temperature;BMP_pressure;BME280_temperature;BME280_humidity;BME280_pressure;Samples;Min_cycle;Max_cycle;Signal;HPM_P1;HPM_P2
2024/02/06 00:00:49;;;;;;;13.20;5.63;;;10.90;99.90;;;;;;7285750;19;20203;-81
2024/02/06 00:03:15;;;;;;;14.60;5.07;;;10.90;99.90;;;;;;7283598;19;20193;-81
2024/02/06 00:05:41;;;;;;;12.07;5.63;;;11.00;99.90;;;;;;7286345;19;20549;-81
2024/02/06 00:08:06;;;;;;;16.70;5.70;;;11.00;99.90;;;;;;7286021;19;20532;-81
2024/02/06 00:10:32;;;;;;;12.57;5.17;;;10.90;99.90;;;;;;7285873;19;20290;-80
2024/02/06 00:12:58;;;;;;;12.50;5.40;;;10.90;99.90;;;;;;7293446;19;20679;-81
2024/02/06 00:15:24;;;;;;;13.27;5.10;;;10.80;99.90;;;;;;7307864;19;20216;-81
2024/02/06 00:17:49;;;;;;;13.00;5.37;;;10.80;99.90;;;;;;7284823;19;20183;-81
2024/02/06 00:20:19;;;;;;;12.80;5.27;;;10.80;99.90;;;;;;7285445;19;20203;-81
2024/02/06 00:22:48;;;;;;;12.30;4.67;;;10.90;99.90;;;;;;7284301;19;20657;-81
2024/02/06 00:25:13;;;;;;;9.87;5.00;;;11.00;99.90;;;;;;7279359;19;20571;-80
2024/02/06 00:27:39;;;;;;;11.07;4.60;;;11.00;99.90;;;;;;7286771;19;20199;-81
2024/02/06 00:30:06;;;;;;;15.17;5.00;;;11.00;99.90;;;;;;7283428;19;20191;-80
2024/02/06 00:32:31;;;;;;;12.00;4.23;;;10.90;99.90;;;;;;7284397;19;20197;-81
2024/02/06 00:35:00;;;;;;;14.57;5.20;;;10.90;99.90;;;;;;7284915;19;20183;-81
2024/02/06 00:37:26;;;;;;;15.10;5.37;;;11.00;99.90;;;;;;7301435;19;20689;-81
2024/02/06 00:39:52;;;;;;;12.27;5.20;;;11.10;99.90;;;;;;7283347;19;20264;-80
2024/02/06 00:42:18;;;;;;;13.57;5.40;;;11.10;99.90;;;;;;7284145;19;20184;-81
2024/02/06 00:44:44;;;;;;;13.03;4.70;;;11.00;99.90;;;;;;7282957;19;20199;-81
2024/02/06 00:47:10;;;;;;;18.70;6.20;;;11.00;99.90;;;;;;7284117;19;20228;-81
2024/02/06 00:49:36;;;;;;;14.67;5.03;;;11.00;99.90;;;;;;7283602;19;20193;-80
2024/02/06 00:52:02;;;;;;;10.43;4.80;;;11.00;99.90;;;;;;7281690;19;20851;-81
2024/02/06 00:54:28;;;;;;;13.77;5.20;;;11.00;99.90;;;;;;7298206;19;20196;-81
2024/02/06 00:56:53;;;;;;;13.47;4.87;;;10.90;99.90;;;;;;7297527;19;20184;-81
2024/02/06 00:59:19;;;;;;;12.00;5.00;;;10.90;99.90;;;;;;7284252;19;20206;-81
2024/02/06 01:01:47;;;;;;;9.33;5.07;;;10.80;99.90;;;;;;7283374;19;20266;-81
2024/02/06 01:04:13;;;;;;;13.60;5.27;;;10.90;99.90;;;;;;7284054;19;20713;-81
2024/02/06 01:06:39;;;;;;;10.50;5.07;;;11.00;99.90;;;;;;7283082;19;20193;-81
2024/02/06 01:09:04;;;;;;;10.13;4.63;;;11.00;99.90;;;;;;7282589;19;20196;-81
2024/02/06 01:11:30;;;;;;;14.80;5.03;;;10.90;99.90;;;;;;7280959;19;20303;-81
2024/02/06 01:13:56;;;;;;;14.83;5.10;;;10.90;99.90;;;;;;7305634;19;20190;-81
2024/02/06 01:16:22;;;;;;;13.90;4.77;;;10.90;99.90;;;;;;7281236;19;20194;-80
2024/02/06 01:18:48;;;;;;;13.20;4.37;;;10.90;99.90;;;;;;7281418;19;20181;-81
2024/02/06 01:21:15;;;;;;;11.00;4.40;;;10.90;99.90;;;;;;7282895;19;20751;-80
2024/02/06 01:23:41;;;;;;;11.47;4.80;;;10.90;99.90;;;;;;7281451;19;20235;-81
2024/02/06 01:26:12;;;;;;;10.30;4.47;;;10.90;99.90;;;;;;7282982;19;20237;-80
2024/02/06 01:28:38;;;;;;;9.97;4.60;;;10.90;99.90;;;;;;7281172;19;20192;-81
2024/02/06 01:31:04;;;;;;;10.07;4.27;;;11.00;99.90;;;;;;7282494;19;20189;-82
2024/02/06 01:33:30;;;;;;;13.93;4.70;;;11.00;99.90;;;;;;7282126;19;20291;-82
2024/02/06 01:35:55;;;;;;;12.63;4.47;;;11.10;99.90;;;;;;7305131;19;20194;-81
2024/02/06 01:38:22;;;;;;;11.80;4.80;;;11.10;99.90;;;;;;7283132;19;20198;-82
2024/02/06 01:40:48;;;;;;;10.67;4.43;;;11.10;99.90;;;;;;7282440;19;20201;-81
2024/02/06 01:43:13;;;;;;;9.70;4.30;;;11.10;99.90;;;;;;7280728;19;20196;-82
2024/02/06 01:45:40;;;;;;;13.20;4.67;;;11.10;99.90;;;;;;7285423;19;20218;-81
2024/02/06 01:48:08;;;;;;;12.43;4.73;;;11.10;99.90;;;;;;7286490;19;20197;-81
2024/02/06 01:50:36;;;;;;;10.87;4.47;;;11.20;99.90;;;;;;7286248;19;20202;-81
2024/02/06 01:53:03;;;;;;;13.13;4.67;;;11.30;99.90;;;;;;7284070;19;20189;-81
2024/02/06 01:55:29;;;;;;;15.03;4.67;;;11.20;99.90;;;;;;7293449;19;20191;-81
2024/02/06 01:57:55;;;;;;;10.03;4.30;;;11.20;99.90;;;;;;7312843;19;20200;-81
2024/02/06 02:00:22;;;;;;;11.67;4.40;;;11.20;99.90;;;;;;7288917;19;20192;-81
2024/02/06 02:02:48;;;;;;;10.77;4.13;;;11.10;99.90;;;;;;7287474;19;20848;-81
2024/02/06 02:05:15;;;;;;;12.77;4.57;;;11.00;99.90;;;;;;7288219;19;20219;-81
2024/02/06 02:07:41;;;;;;;16.27;4.30;;;11.10;99.90;;;;;;7288704;19;20536;-81
2024/02/06 02:10:07;;;;;;;13.63;4.20;;;11.10;99.90;;;;;;7287251;19;20280;-81
2024/02/06 02:12:35;;;;;;;10.40;4.30;;;11.10;99.90;;;;;;7286541;19;20196;-81
2024/02/06 02:15:02;;;;;;;14.37;4.00;;;11.00;99.90;;;;;;7288719;19;20265;-81
2024/02/06 02:17:28;;;;;;;13.07;4.57;;;11.10;99.90;;;;;;7297459;19;20196;-81
2024/02/06 02:19:54;;;;;;;14.07;4.10;;;11.10;99.90;;;;;;7308111;19;20199;-81
2024/02/06 02:22:20;;;;;;;10.33;4.10;;;11.20;99.90;;;;;;7288322;19;20199;-81
2024/02/06 02:24:45;;;;;;;9.67;4.10;;;11.20;99.90;;;;;;7288737;19;20196;-80
2024/02/06 02:27:12;;;;;;;11.37;4.30;;;11.20;99.90;;;;;;7287531;19;20286;-81
2024/02/06 02:29:40;;;;;;;10.97;4.47;;;11.10;99.90;;;;;;7287742;19;20192;-82
2024/02/06 02:32:08;;;;;;;12.77;4.53;;;11.10;99.90;;;;;;7288627;19;20195;-81
2024/02/06 02:34:35;;;;;;;13.90;4.73;;;11.10;99.90;;;;;;7287936;19;20195;-81
2024/02/06 02:37:01;;;;;;;11.27;4.40;;;11.20;99.90;;;;;;7286048;19;20187;-81
2024/02/06 02:39:27;;;;;;;12.13;4.83;;;11.20;99.90;;;;;;7309727;19;20193;-81
2024/02/06 02:41:53;;;;;;;13.03;4.70;;;11.20;99.90;;;;;;7289381;19;20268;-81
2024/02/06 02:44:19;;;;;;;14.23;4.50;;;11.10;99.90;;;;;;7287170;19;20650;-81
2024/02/06 02:46:45;;;;;;;16.07;5.00;;;11.10;99.90;;;;;;7286560;19;20196;-81
2024/02/06 02:49:10;;;;;;;12.27;4.17;;;11.00;99.90;;;;;;7287047;19;20200;-81
2024/02/06 02:51:36;;;;;;;13.03;4.30;;;11.00;99.90;;;;;;7287111;19;20276;-81
2024/02/06 02:54:02;;;;;;;10.23;4.03;;;11.00;99.90;;;;;;7288395;19;20192;-81
2024/02/06 02:56:28;;;;;;;11.17;4.10;;;11.00;99.90;;;;;;7306216;19;20200;-80
2024/02/06 02:58:54;;;;;;;12.73;4.40;;;10.90;99.90;;;;;;7297040;19;20216;-81
2024/02/06 03:01:19;;;;;;;13.67;4.50;;;11.00;99.90;;;;;;7286429;19;20749;-81
2024/02/06 03:03:45;;;;;;;10.63;4.03;;;11.00;99.90;;;;;;7286863;19;20197;-81
2024/02/06 03:06:18;;;;;;;11.20;4.20;;;11.00;99.90;;;;;;7287253;19;20217;-81
2024/02/06 03:08:44;;;;;;;11.10;4.20;;;10.90;99.90;;;;;;7284693;19;20579;-81
2024/02/06 03:11:10;;;;;;;12.57;4.10;;;10.90;99.90;;;;;;7284858;19;20195;-81
2024/02/06 03:13:36;;;;;;;11.23;4.13;;;10.90;99.90;;;;;;7287345;19;20292;-81
2024/02/06 03:16:02;;;;;;;10.13;4.23;;;10.90;99.90;;;;;;7287089;19;20602;-81
2024/02/06 03:18:27;;;;;;;13.73;4.53;;;11.00;99.90;;;;;;7308144;19;20270;-81
2024/02/06 03:20:53;;;;;;;15.00;4.73;;;10.90;99.90;;;;;;7296758;19;20198;-81
2024/02/06 03:23:22;;;;;;;9.90;4.10;;;10.90;99.90;;;;;;7286935;19;20201;-81
2024/02/06 03:25:48;;;;;;;13.57;4.60;;;10.90;99.90;;;;;;7286304;19;20203;-81
2024/02/06 03:28:13;;;;;;;11.47;4.40;;;10.90;99.90;;;;;;7286078;19;20195;-81
2024/02/06 03:30:41;;;;;;;14.03;4.83;;;11.00;99.90;;;;;;7283982;19;20201;-81
2024/02/06 03:33:07;;;;;;;13.33;4.27;;;11.10;99.90;;;;;;7283947;19;20195;-81
2024/02/06 03:35:32;;;;;;;12.53;4.33;;;11.10;99.90;;;;;;7286091;19;20191;-82
2024/02/06 03:37:58;;;;;;;12.60;4.50;;;11.00;99.90;;;;;;7297180;19;20195;-81
2024/02/06 03:40:25;;;;;;;11.30;4.50;;;11.00;99.90;;;;;;7300390;19;20196;-81
2024/02/06 03:42:51;;;;;;;15.93;4.50;;;11.10;99.90;;;;;;7285032;19;20191;-81
2024/02/06 03:45:16;;;;;;;14.43;4.70;;;11.10;99.90;;;;;;7284492;19;20210;-81
2024/02/06 03:47:42;;;;;;;14.03;4.83;;;11.10;99.90;;;;;;7287224;19;20194;-81
2024/02/06 03:50:08;;;;;;;12.43;4.30;;;11.10;99.90;;;;;;7285787;19;20203;-80
2024/02/06 03:52:35;;;;;;;11.40;4.47;;;11.10;99.90;;;;;;7285444;19;20199;-80
2024/02/06 03:55:00;;;;;;;11.40;4.93;;;11.10;99.90;;;;;;7284632;19;20193;-80
2024/02/06 03:57:28;;;;;;;18.70;4.90;;;11.10;99.90;;;;;;7306199;19;20266;-80
2024/02/06 03:59:54;;;;;;;17.37;4.87;;;11.00;99.90;;;;;;7284705;19;20199;-80
2024/02/06 04:02:21;;;;;;;11.83;5.00;;;11.00;99.90;;;;;;7286473;19;20278;-80
2024/02/06 04:04:49;;;;;;;15.33;4.53;;;11.10;99.90;;;;;;7284084;19;20225;-80
2024/02/06 04:07:16;;;;;;;12.83;5.23;;;11.10;99.90;;;;;;7284404;19;20206;-81
2024/02/06 04:09:41;;;;;;;14.23;4.77;;;11.20;99.90;;;;;;7284477;19;20213;-80
2024/02/06 04:12:07;;;;;;;10.63;4.90;;;11.20;99.90;;;;;;7284527;19;20189;-80
2024/02/06 04:14:33;;;;;;;15.00;5.43;;;11.20;99.90;;;;;;7286133;19;20539;-80
2024/02/06 04:16:59;;;;;;;12.87;5.53;;;11.10;99.90;;;;;;7292039;19;20678;-82
2024/02/06 04:19:25;;;;;;;14.33;5.47;;;11.20;99.90;;;;;;7303317;19;20570;-81
2024/02/06 04:21:51;;;;;;;17.20;5.53;;;11.10;99.90;;;;;;7285947;19;20197;-81
2024/02/06 04:24:17;;;;;;;19.00;5.60;;;11.10;99.90;;;;;;7284314;19;20561;-81
2024/02/06 04:26:45;;;;;;;14.20;4.80;;;11.10;99.90;;;;;;7284217;19;20533;-82
2024/02/06 04:29:11;;;;;;;12.87;5.23;;;11.10;99.90;;;;;;7284432;19;20193;-81
2024/02/06 04:31:37;;;;;;;16.27;5.93;;;11.20;99.90;;;;;;7283050;19;20234;-81
2024/02/06 04:34:03;;;;;;;14.60;5.30;;;11.20;99.90;;;;;;7285104;19;20198;-82
2024/02/06 04:36:29;;;;;;;16.47;6.30;;;11.30;99.90;;;;;;7295334;19;20189;-81
2024/02/06 04:38:54;;;;;;;17.63;6.47;;;11.30;99.90;;;;;;7303218;19;20212;-81
2024/02/06 04:41:20;;;;;;;17.47;6.67;;;11.30;99.90;;;;;;7282955;19;20203;-81
2024/02/06 04:43:46;;;;;;;16.97;6.43;;;11.30;99.90;;;;;;7282528;19;20203;-80
2024/02/06 04:46:12;;;;;;;15.90;6.30;;;11.30;99.90;;;;;;7282992;19;20199;-80
2024/02/06 04:48:37;;;;;;;15.50;6.00;;;11.30;99.90;;;;;;7283274;19;20672;-81
2024/02/06 04:51:04;;;;;;;19.60;6.93;;;11.30;99.90;;;;;;7280424;19;20211;-81
2024/02/06 04:53:31;;;;;;;17.27;7.03;;;11.30;99.90;;;;;;7283328;19;20200;-81
2024/02/06 04:55:57;;;;;;;15.63;7.40;;;11.30;99.90;;;;;;7305700;19;20195;-81
2024/02/06 04:58:23;;;;;;;19.97;7.70;;;11.40;99.90;;;;;;7281321;19;20205;-82
2024/02/06 05:00:48;;;;;;;22.17;7.23;;;11.40;99.90;;;;;;7283865;19;20236;-81
2024/02/06 05:03:14;;;;;;;16.63;6.47;;;11.50;99.90;;;;;;7283283;19;20195;-81
2024/02/06 05:05:40;;;;;;;18.87;6.37;;;11.50;99.90;;;;;;7282959;19;20196;-81
2024/02/06 05:08:06;;;;;;;15.13;6.37;;;11.50;99.90;;;;;;7283710;19;20195;-81
2024/02/06 05:10:31;;;;;;;16.67;5.90;;;11.50;99.90;;;;;;7274014;19;20198;-81
2024/02/06 05:12:58;;;;;;;21.97;5.77;;;11.40;99.90;;;;;;7303490;19;20264;-81
2024/02/06 05:15:23;;;;;;;14.50;5.17;;;11.40;99.90;;;;;;7282020;19;20222;-81
2024/02/06 05:17:49;;;;;;;15.67;5.77;;;11.40;99.90;;;;;;7282303;19;20188;-81
2024/02/06 05:20:15;;;;;;;11.77;4.97;;;11.50;99.90;;;;;;7285344;19;20220;-81
2024/02/06 05:22:41;;;;;;;14.07;5.20;;;11.40;99.90;;;;;;7283376;19;20191;-81
2024/02/06 05:25:09;;;;;;;17.77;5.53;;;11.40;99.90;;;;;;7283221;19;20306;-81
2024/02/06 05:27:34;;;;;;;15.23;5.97;;;11.50;99.90;;;;;;7282809;19;20199;-81
2024/02/06 05:30:05;;;;;;;21.57;6.13;;;11.50;99.90;;;;;;7281815;19;20203;-81
2024/02/06 05:32:36;;;;;;;15.97;5.37;;;11.60;99.90;;;;;;7289462;19;20216;-80
2024/02/06 05:35:03;;;;;;;18.53;5.77;;;11.50;99.90;;;;;;7289462;19;20192;-80
2024/02/06 05:37:29;;;;;;;20.50;5.67;;;11.50;99.90;;;;;;7310747;19;20235;-80
2024/02/06 05:39:55;;;;;;;16.37;5.27;;;11.40;99.90;;;;;;7289705;19;20198;-80
2024/02/06 05:42:21;;;;;;;15.97;5.73;;;11.40;99.90;;;;;;7287993;19;20192;-81
2024/02/06 05:44:47;;;;;;;16.30;5.67;;;11.50;99.90;;;;;;7287604;19;20259;-80
2024/02/06 05:47:13;;;;;;;19.23;6.07;;;11.50;99.90;;;;;;7288912;19;20196;-81
2024/02/06 05:49:39;;;;;;;18.70;5.97;;;11.50;99.90;;;;;;7288673;19;20187;-81
2024/02/06 05:52:05;;;;;;;20.07;5.73;;;11.50;99.90;;;;;;7287889;19;20221;-80
2024/02/06 05:54:31;;;;;;;14.60;5.63;;;11.50;99.90;;;;;;7288971;19;20648;-81
2024/02/06 05:56:56;;;;;;;23.77;5.93;;;11.60;99.90;;;;;;7311292;19;20798;-80
2024/02/06 05:59:24;;;;;;;12.30;5.30;;;11.50;99.90;;;;;;7289753;19;20878;-81
2024/02/06 06:01:51;;;;;;;16.10;5.20;;;11.50;99.90;;;;;;7292466;19;20178;-81
2024/02/06 06:04:17;;;;;;;15.10;5.57;;;11.40;99.90;;;;;;7299616;19;20203;-83
2024/02/06 06:06:43;;;;;;;20.30;5.20;;;11.40;99.90;;;;;;7299507;19;20192;-81
2024/02/06 06:09:09;;;;;;;16.10;5.53;;;11.30;99.90;;;;;;7299281;19;20215;-81
2024/02/06 06:11:35;;;;;;;17.47;5.67;;;11.40;99.90;;;;;;7296489;19;20792;-80
2024/02/06 06:14:01;;;;;;;16.93;6.20;;;11.50;99.90;;;;;;7291357;19;20191;-80
2024/02/06 06:16:27;;;;;;;15.80;5.70;;;11.60;99.90;;;;;;7309594;19;20195;-80
2024/02/06 06:18:53;;;;;;;17.70;5.57;;;11.60;99.90;;;;;;7288705;19;20550;-81
2024/02/06 06:21:18;;;;;;;14.73;5.83;;;11.60;99.90;;;;;;7289029;19;20198;-81
2024/02/06 06:23:44;;;;;;;15.97;6.07;;;11.50;99.90;;;;;;7287725;19;20659;-79
2024/02/06 06:26:10;;;;;;;15.03;5.40;;;11.50;99.90;;;;;;7287161;19;20197;-80
2024/02/06 06:28:36;;;;;;;17.23;5.40;;;11.50;99.90;;;;;;7286685;19;20252;-79
2024/02/06 06:31:01;;;;;;;16.80;6.03;;;11.40;99.90;;;;;;7284073;19;20216;-82
2024/02/06 06:33:29;;;;;;;15.57;6.60;;;11.30;99.90;;;;;;7310160;19;20209;-82
2024/02/06 06:35:54;;;;;;;15.53;6.03;;;11.40;99.90;;;;;;7287163;19;20236;-81
2024/02/06 06:38:20;;;;;;;14.50;5.87;;;11.40;99.90;;;;;;7286021;19;20188;-81
2024/02/06 06:40:46;;;;;;;18.20;6.07;;;11.40;99.90;;;;;;7286074;19;20193;-80
2024/02/06 06:43:11;;;;;;;18.80;5.90;;;11.50;99.90;;;;;;7284155;19;20204;-81
2024/02/06 06:45:38;;;;;;;15.47;5.87;;;11.40;99.90;;;;;;7283490;19;20192;-81
2024/02/06 06:48:04;;;;;;;15.57;6.37;;;11.50;99.90;;;;;;7286630;19;20195;-81
2024/02/06 06:50:31;;;;;;;19.57;6.87;;;11.40;99.90;;;;;;7285404;19;20263;-81
2024/02/06 06:52:58;;;;;;;19.90;6.27;;;11.50;99.90;;;;;;7309055;19;20199;-81
2024/02/06 06:55:24;;;;;;;20.17;6.37;;;11.60;99.90;;;;;;7285418;19;20243;-82
2024/02/06 06:57:50;;;;;;;17.67;5.70;;;11.60;99.90;;;;;;7285727;19;20274;-82
2024/02/06 07:00:17;;;;;;;16.93;5.50;;;11.60;99.90;;;;;;7286150;19;20629;-82
2024/02/06 07:02:43;;;;;;;16.20;5.97;;;11.50;99.90;;;;;;7286812;19;20209;-83
2024/02/06 07:05:12;;;;;;;15.30;5.70;;;11.50;99.90;;;;;;7285817;19;20199;-83
2024/02/06 07:07:39;;;;;;;15.33;5.80;;;11.50;99.90;;;;;;7285429;19;20194;-82
2024/02/06 07:10:06;;;;;;;14.67;5.63;;;11.50;99.90;;;;;;7286234;19;20218;-82
2024/02/06 07:12:32;;;;;;;15.50;5.87;;;11.50;99.90;;;;;;7285231;19;20185;-82
2024/02/06 07:14:59;;;;;;;17.60;5.90;;;11.40;99.90;;;;;;7308290;19;20220;-81
2024/02/06 07:17:24;;;;;;;20.23;6.43;;;11.40;99.90;;;;;;7286771;19;20191;-81
2024/02/06 07:19:51;;;;;;;15.50;6.10;;;11.50;99.90;;;;;;7287747;19;20728;-82
2024/02/06 07:22:17;;;;;;;16.40;5.80;;;11.50;99.90;;;;;;7286272;19;20192;-81
2024/02/06 07:24:43;;;;;;;18.13;5.70;;;11.50;99.90;;;;;;7286073;19;20213;-81
2024/02/06 07:27:09;;;;;;;21.60;6.23;;;11.50;99.90;;;;;;7286228;19;20203;-82
2024/02/06 07:29:35;;;;;;;18.03;5.23;;;11.50;99.90;;;;;;7281162;19;20189;-81
2024/02/06 07:32:01;;;;;;;18.03;5.93;;;11.60;99.90;;;;;;7284718;19;20681;-81
2024/02/06 07:34:27;;;;;;;19.17;6.20;;;11.50;99.90;;;;;;7308301;19;20199;-79
2024/02/06 07:36:53;;;;;;;22.50;6.73;;;11.60;99.90;;;;;;7285597;19;20195;-81
2024/02/06 07:39:19;;;;;;;17.60;5.70;;;11.70;99.90;;;;;;7288786;19;20193;-81
2024/02/06 07:41:51;;;;;;;21.97;6.03;;;11.70;99.90;;;;;;7294608;19;20272;-86
2024/02/06 07:44:18;;;;;;;19.37;5.63;;;11.60;99.90;;;;;;7294063;19;20193;-87
2024/02/06 07:46:45;;;;;;;24.83;6.00;;;11.70;99.90;;;;;;7291433;19;20203;-87
2024/02/06 07:49:15;;;;;;;19.70;5.70;;;11.70;99.90;;;;;;7293830;19;20226;-88
2024/02/06 07:51:41;;;;;;;19.63;6.60;;;11.70;99.90;;;;;;7296106;19;20202;-88
2024/02/06 07:54:09;;;;;;;20.13;5.97;;;11.70;99.90;;;;;;7296394;19;20294;-88
2024/02/06 07:56:37;;;;;;;17.53;6.07;;;11.70;99.90;;;;;;7289722;19;20240;-87
2024/02/06 07:59:04;;;;;;;20.10;5.90;;;11.70;99.90;;;;;;7289718;19;20665;-88
2024/02/06 08:01:30;;;;;;;16.67;5.70;;;11.60;99.90;;;;;;7299343;19;20640;-87
2024/02/06 08:03:56;;;;;;;24.03;5.90;;;11.50;99.90;;;;;;7309832;19;20189;-88
2024/02/06 08:06:22;;;;;;;18.63;5.70;;;11.60;99.90;;;;;;7288341;19;20193;-88
2024/02/06 08:08:48;;;;;;;16.33;6.10;;;11.60;99.90;;;;;;7284592;19;20191;-87
2024/02/06 08:11:14;;;;;;;16.27;5.83;;;11.60;99.90;;;;;;7287882;19;20195;-87
2024/02/06 08:13:43;;;;;;;19.43;6.60;;;11.70;99.90;;;;;;7289440;19;20192;-87
2024/02/06 08:16:10;;;;;;;23.30;5.53;;;11.70;99.90;;;;;;7296519;19;20205;-86
2024/02/06 08:18:36;;;;;;;14.70;5.33;;;11.70;99.90;;;;;;7291338;19;20202;-87
2024/02/06 08:21:02;;;;;;;21.27;6.33;;;11.70;99.90;;;;;;7287179;19;20709;-87
2024/02/06 08:23:28;;;;;;;18.10;6.40;;;11.70;99.90;;;;;;7307762;19;20192;-88
2024/02/06 08:25:54;;;;;;;21.43;6.37;;;11.70;99.90;;;;;;7288078;19;20272;-88
2024/02/06 08:28:19;;;;;;;17.60;5.90;;;11.70;99.90;;;;;;7284707;19;20204;-87
2024/02/06 08:30:47;;;;;;;16.90;6.07;;;11.70;99.90;;;;;;7285861;19;20190;-88
2024/02/06 08:33:14;;;;;;;17.33;5.80;;;11.70;99.90;;;;;;7286834;19;20197;-89
2024/02/06 08:35:40;;;;;;;19.43;6.00;;;11.60;99.90;;;;;;7286401;19;20263;-88
2024/02/06 08:38:07;;;;;;;26.27;7.00;;;11.60;99.90;;;;;;7285772;19;20193;-88
2024/02/06 08:40:33;;;;;;;13.40;5.80;;;11.70;99.90;;;;;;7284779;19;20212;-87
2024/02/06 08:42:59;;;;;;;18.93;5.83;;;11.70;99.90;;;;;;7310090;19;20195;-82
2024/02/06 08:45:25;;;;;;;13.43;5.33;;;11.80;99.90;;;;;;7305995;19;20200;-86
2024/02/06 08:47:51;;;;;;;19.33;6.13;;;11.80;99.90;;;;;;7298579;19;21042;-85
2024/02/06 08:50:17;;;;;;;20.83;5.90;;;11.80;99.90;;;;;;7293454;19;20197;-88
2024/02/06 08:52:43;;;;;;;16.83;5.40;;;11.70;99.90;;;;;;7291083;19;20221;-87
2024/02/06 08:55:09;;;;;;;17.93;6.00;;;11.70;99.90;;;;;;7288536;19;20242;-88
2024/02/06 08:57:36;;;;;;;19.00;5.77;;;11.80;99.90;;;;;;7285790;19;20194;-88
2024/02/06 09:00:11;;;;;;;16.27;5.40;;;11.80;99.90;;;;;;7284969;19;20193;-87
2024/02/06 09:02:39;;;;;;;20.63;5.87;;;11.90;99.90;;;;;;7284391;19;20188;-88
2024/02/06 09:05:05;;;;;;;19.57;6.40;;;11.90;99.90;;;;;;7285424;19;20289;-88
2024/02/06 09:07:31;;;;;;;14.93;5.20;;;11.90;99.90;;;;;;7285039;19;20185;-87
2024/02/06 09:09:59;;;;;;;22.47;5.60;;;12.00;99.90;;;;;;7306241;19;20181;-88
2024/02/06 09:12:26;;;;;;;17.73;5.57;;;11.90;99.90;;;;;;7285690;19;20547;-88
2024/02/06 09:14:52;;;;;;;16.73;6.10;;;11.80;99.90;;;;;;7286122;19;20183;-87
2024/02/06 09:17:22;;;;;;;22.10;5.80;;;11.90;99.90;;;;;;7284460;19;20188;-86
2024/02/06 09:19:48;;;;;;;18.73;5.63;;;11.90;99.90;;;;;;7285347;19;20189;-87
2024/02/06 09:22:14;;;;;;;20.87;6.03;;;12.00;99.90;;;;;;7284271;19;20184;-87
2024/02/06 09:24:39;;;;;;;18.70;5.80;;;12.00;99.90;;;;;;7284042;19;20196;-86
2024/02/06 09:27:05;;;;;;;22.57;5.40;;;12.10;99.90;;;;;;7283615;19;20256;-87
2024/02/06 09:29:31;;;;;;;17.23;5.13;;;12.10;99.90;;;;;;7284320;19;20745;-87
2024/02/06 09:31:56;;;;;;;17.27;5.90;;;12.20;99.90;;;;;;7305928;19;20572;-88
2024/02/06 09:34:22;;;;;;;16.50;6.00;;;12.10;99.90;;;;;;7285601;19;20199;-87
2024/02/06 09:36:49;;;;;;;16.10;5.53;;;12.20;99.90;;;;;;7288970;19;20215;-86
2024/02/06 09:39:16;;;;;;;18.57;5.97;;;12.20;99.90;;;;;;7288998;19;20340;-86
2024/02/06 09:41:49;;;;;;;15.77;5.43;;;12.10;99.90;;;;;;7276276;19;20196;-86
2024/02/06 09:44:16;;;;;;;16.97;5.20;;;12.20;99.90;;;;;;7288847;19;20185;-87
2024/02/06 09:46:45;;;;;;;18.77;5.50;;;12.10;99.90;;;;;;7291541;19;20193;-87
2024/02/06 09:49:12;;;;;;;14.97;5.30;;;12.20;99.90;;;;;;7292408;19;20243;-88
2024/02/06 09:51:42;;;;;;;18.37;5.90;;;12.20;99.90;;;;;;7285266;19;20643;-87
2024/02/06 09:54:09;;;;;;;17.23;5.20;;;12.20;99.90;;;;;;7283421;19;20191;-87
2024/02/06 09:56:35;;;;;;;18.97;5.43;;;12.10;99.90;;;;;;7282526;19;20201;-88
2024/02/06 09:59:05;;;;;;;15.67;5.47;;;12.10;99.90;;;;;;7283459;19;20189;-86
2024/02/06 10:01:37;;;;;;;18.80;6.83;;;12.10;99.90;;;;;;7288152;19;20192;-87
2024/02/06 10:04:04;;;;;;;17.00;5.13;;;12.00;99.90;;;;;;7283827;19;20188;-87
2024/02/06 10:06:30;;;;;;;15.60;4.80;;;12.10;99.90;;;;;;7295161;19;20308;-86
2024/02/06 10:08:57;;;;;;;15.97;5.50;;;12.10;99.90;;;;;;7305835;19;20205;-87
2024/02/06 10:11:24;;;;;;;18.83;5.40;;;12.20;99.90;;;;;;7281769;19;20185;-80
2024/02/06 10:13:50;;;;;;;17.43;5.20;;;12.30;99.90;;;;;;7281958;19;20202;-80
2024/02/06 10:16:15;;;;;;;17.27;4.97;;;12.30;99.90;;;;;;7280507;19;20192;-79
2024/02/06 10:18:55;;;;;;;15.60;5.03;;;12.20;99.90;;;;;;7287528;19;20208;-79
2024/02/06 10:21:21;;;;;;;15.33;4.90;;;12.30;99.90;;;;;;7287371;19;21081;-79
2024/02/06 10:23:49;;;;;;;13.97;5.07;;;12.30;99.90;;;;;;7288504;19;20193;-80
2024/02/06 10:26:18;;;;;;;21.20;4.90;;;12.20;99.90;;;;;;7287464;19;20196;-78
2024/02/06 10:28:45;;;;;;;18.30;5.00;;;12.30;99.90;;;;;;7286822;19;20252;-78
2024/02/06 10:31:11;;;;;;;17.23;5.40;;;12.30;99.90;;;;;;7287791;19;20188;-78
2024/02/06 10:33:40;;;;;;;16.23;5.10;;;12.50;99.90;;;;;;7286440;19;20191;-78
2024/02/06 10:36:06;;;;;;;18.53;5.37;;;12.50;99.90;;;;;;7287386;19;20181;-79
2024/02/06 10:38:32;;;;;;;15.40;5.23;;;12.40;99.90;;;;;;7286318;19;20189;-78
2024/02/06 10:40:58;;;;;;;20.27;5.23;;;12.50;99.90;;;;;;7309652;19;20194;-80
2024/02/06 10:43:29;;;;;;;16.87;5.30;;;12.40;99.90;;;;;;7288533;19;20189;-81
2024/02/06 10:46:01;;;;;;;16.53;5.07;;;12.50;99.90;;;;;;7281069;19;20185;-80
2024/02/06 10:48:28;;;;;;;21.70;4.87;;;12.60;99.90;;;;;;7289163;19;20681;-81
2024/02/06 10:51:01;;;;;;;20.53;4.60;;;12.60;99.90;;;;;;7285670;19;20181;-80
2024/02/06 10:53:27;;;;;;;16.63;4.90;;;12.70;99.90;;;;;;7286876;19;20264;-80
2024/02/06 10:56:06;;;;;;;17.50;4.67;;;12.70;99.90;;;;;;7288048;19;20205;-81
2024/02/06 10:58:41;;;;;;;21.27;4.77;;;12.60;99.90;;;;;;7276734;19;20654;-80
2024/02/06 11:01:09;;;;;;;16.67;4.70;;;12.60;99.90;;;;;;7287816;19;20197;-79
2024/02/06 11:03:42;;;;;;;19.97;4.90;;;12.70;99.90;;;;;;7288434;19;20192;-79
2024/02/06 11:06:21;;;;;;;13.50;4.17;;;12.80;99.90;;;;;;7287938;19;20192;-81
2024/02/06 11:08:48;;;;;;;16.70;4.13;;;12.90;99.90;;;;;;7287025;19;20200;-80
2024/02/06 11:11:15;;;;;;;17.37;4.00;;;12.80;99.90;;;;;;7285998;19;20212;-81
2024/02/06 11:13:50;;;;;;;18.90;4.70;;;12.70;99.90;;;;;;7291304;19;20570;-81
2024/02/06 11:16:19;;;;;;;17.97;4.73;;;12.70;99.90;;;;;;7285987;19;20203;-82
2024/02/06 11:19:15;;;;;;;14.00;4.20;;;12.70;99.90;;;;;;7287384;19;20180;-81
2024/02/06 11:21:46;;;;;;;17.47;4.80;;;12.70;99.90;;;;;;7185490;19;2004838;-81
2024/02/06 11:24:12;;;;;;;15.97;4.27;;;12.60;99.90;;;;;;7284915;19;20195;-83
2024/02/06 11:26:41;;;;;;;21.13;4.40;;;12.70;99.90;;;;;;7285898;19;20202;-82
2024/02/06 11:29:08;;;;;;;18.27;4.03;;;12.70;99.90;;;;;;7283306;19;20192;-82
2024/02/06 11:31:38;;;;;;;13.83;4.20;;;12.80;99.90;;;;;;7285667;19;20196;-81
2024/02/06 11:34:14;;;;;;;15.10;4.60;;;12.80;99.90;;;;;;7286377;19;20902;-82
2024/02/06 11:36:43;;;;;;;16.17;4.37;;;12.90;99.90;;;;;;7286432;19;20645;-82
2024/02/06 11:39:10;;;;;;;17.40;4.40;;;12.90;99.90;;;;;;7285790;19;20201;-82
2024/02/06 11:41:36;;;;;;;16.07;4.07;;;13.00;99.90;;;;;;7285723;19;20203;-82
2024/02/06 11:44:12;;;;;;;16.07;3.80;;;13.20;99.90;;;;;;7285013;19;20619;-82
2024/02/06 11:46:49;;;;;;;15.93;3.93;;;13.20;99.90;;;;;;7285136;19;20199;-81
2024/02/06 11:49:22;;;;;;;13.20;3.63;;;13.10;99.90;;;;;;7286080;19;20200;-81
2024/02/06 11:51:57;;;;;;;14.83;3.57;;;13.10;99.90;;;;;;7283185;19;20209;-81
2024/02/06 11:54:25;;;;;;;13.03;3.50;;;13.30;99.90;;;;;;7285611;19;20188;-81
2024/02/06 11:56:52;;;;;;;17.13;3.83;;;13.40;99.90;;;;;;7284722;19;20178;-81
2024/02/06 11:59:18;;;;;;;15.03;3.63;;;13.60;99.90;;;;;;7284801;19;20194;-81
2024/02/06 12:01:43;;;;;;;17.77;3.50;;;13.50;99.90;;;;;;7286057;19;20194;-82
2024/02/06 12:04:10;;;;;;;13.43;3.23;;;13.40;99.90;;;;;;7284949;19;20201;-81
2024/02/06 12:06:36;;;;;;;12.50;3.93;;;13.20;99.90;;;;;;7284106;19;20192;-81
2024/02/06 12:09:08;;;;;;;16.03;3.57;;;13.20;99.90;;;;;;7285534;19;20542;-79
2024/02/06 12:11:42;;;;;;;14.10;3.97;;;13.30;99.90;;;;;;7283161;19;20294;-82
2024/02/06 12:14:10;;;;;;;12.07;3.47;;;13.40;99.90;;;;;;7284997;19;20275;-81
2024/02/06 12:16:36;;;;;;;12.77;3.33;;;13.40;99.90;;;;;;7284431;19;20553;-81
2024/02/06 12:19:03;;;;;;;18.03;4.40;;;13.40;99.90;;;;;;7284690;19;20188;-82
2024/02/06 12:21:28;;;;;;;21.90;4.37;;;13.50;99.90;;;;;;7307292;19;20264;-83
2024/02/06 12:24:05;;;;;;;14.80;3.87;;;13.50;99.90;;;;;;7284257;19;20255;-81
2024/02/06 12:26:31;;;;;;;15.83;4.23;;;13.60;99.90;;;;;;7274141;19;20255;-81
2024/02/06 12:29:05;;;;;;;16.53;4.13;;;13.70;99.90;;;;;;7305591;19;20289;-82
2024/02/06 12:31:35;;;;;;;20.07;4.30;;;13.60;99.90;;;;;;7273828;19;20587;-81
2024/02/06 12:34:01;;;;;;;14.33;3.67;;;13.60;99.90;;;;;;7297111;19;20214;-82
2024/02/06 12:36:27;;;;;;;12.13;3.67;;;13.80;99.90;;;;;;7306321;19;20198;-83